sensor_id;sensor_type;location;lat;lon;timestamp;P1;durP1;ratioP1;P2;durP2;ratioP2
26806;SDS011;14380;49.910;6.792;2022-10-04T00:00:58;9.23;;;5.65;;
26806;SDS011;14380;49.910;6.792;2022-10-04T00:03:30;7.88;;;5.90;;
26806;SDS011;14380;49.910;6.792;2022-10-04T00:06:01;9.70;;;6.15;;
26806;SDS011;14380;49.910;6.792;2022-10-04T00:08:32;7.65;;;5.55;;
26806;SDS011;14380;49.910;6.792;2022-10-04T00:11:07;7.72;;;5.35;;
26806;SDS011;14380;49.910;6.792;2022-10-04T00:13:42;9.50;;;6.38;;
26806;SDS011;14380;49.910;6.792;2022-10-04T00:16:18;10.25;;;6.28;;
26806;SDS011;14380;49.910;6.792;2022-10-04T00:18:52;8.27;;;6.30;;
26806;SDS011;14380;49.910;6.792;2022-10-04T00:21:39;7.18;;;5.38;;
26806;SDS011;14380;49.910;6.792;2022-10-04T00:33:54;11.57;;;5.40;;
26806;SDS011;14380;49.910;6.792;2022-10-04T00:36:39;11.95;;;6.20;;
26806;SDS011;14380;49.910;6.792;2022-10-04T00:39:15;6.90;;;5.18;;
26806;SDS011;14380;49.910;6.792;2022-10-04T00:42:04;9.57;;;6.25;;
26806;SDS011;14380;49.910;6.792;2022-10-04T00:44:49;9.90;;;5.47;;
26806;SDS011;14380;49.910;6.792;2022-10-04T00:47:23;6.85;;;5.45;;
26806;SDS011;14380;49.910;6.792;2022-10-04T00:49:56;6.97;;;5.25;;
26806;SDS011;14380;49.910;6.792;2022-10-04T00:52:29;9.65;;;5.53;;
26806;SDS011;14380;49.910;6.792;2022-10-04T00:55:01;7.80;;;4.78;;
26806;SDS011;14380;49.910;6.792;2022-10-04T00:57:33;7.22;;;4.93;;
26806;SDS011;14380;49.910;6.792;2022-10-04T01:00:06;10.75;;;5.90;;
26806;SDS011;14380;49.910;6.792;2022-10-04T01:02:38;9.10;;;5.32;;
26806;SDS011;14380;49.910;6.792;2022-10-04T01:05:14;8.77;;;5.50;;
26806;SDS011;14380;49.910;6.792;2022-10-04T01:07:45;8.60;;;6.07;;
26806;SDS011;14380;49.910;6.792;2022-10-04T01:10:16;8.18;;;5.13;;
26806;SDS011;14380;49.910;6.792;2022-10-04T01:12:48;15.82;;;5.90;;
26806;SDS011;14380;49.910;6.792;2022-10-04T01:15:22;13.48;;;5.78;;
26806;SDS011;14380;49.910;6.792;2022-10-04T01:18:08;9.05;;;5.72;;
26806;SDS011;14380;49.910;6.792;2022-10-04T01:20:38;6.05;;;4.97;;
26806;SDS011;14380;49.910;6.792;2022-10-04T01:23:25;7.13;;;5.20;;
26806;SDS011;14380;49.910;6.792;2022-10-04T01:25:57;11.05;;;5.53;;
26806;SDS011;14380;49.910;6.792;2022-10-04T01:28:24;9.95;;;5.57;;
26806;SDS011;14380;49.910;6.792;2022-10-04T01:30:51;7.85;;;4.82;;
26806;SDS011;14380;49.910;6.792;2022-10-04T01:33:18;10.98;;;5.82;;
26806;SDS011;14380;49.910;6.792;2022-10-04T01:35:45;8.40;;;5.35;;
26806;SDS011;14380;49.910;6.792;2022-10-04T01:38:12;6.78;;;4.93;;
26806;SDS011;14380;49.910;6.792;2022-10-04T01:40:43;10.32;;;6.60;;
26806;SDS011;14380;49.910;6.792;2022-10-04T01:43:15;9.05;;;6.60;;
26806;SDS011;14380;49.910;6.792;2022-10-04T01:45:47;16.48;;;5.60;;
26806;SDS011;14380;49.910;6.792;2022-10-04T01:48:17;7.63;;;5.15;;
26806;SDS011;14380;49.910;6.792;2022-10-04T01:50:50;12.02;;;5.50;;
26806;SDS011;14380;49.910;6.792;2022-10-04T01:53:22;8.45;;;5.30;;
26806;SDS011;14380;49.910;6.792;2022-10-04T01:55:54;7.03;;;5.18;;
26806;SDS011;14380;49.910;6.792;2022-10-04T01:58:31;11.15;;;5.18;;
26806;SDS011;14380;49.910;6.792;2022-10-04T02:01:04;7.63;;;4.78;;
26806;SDS011;14380;49.910;6.792;2022-10-04T02:03:37;9.38;;;4.82;;
26806;SDS011;14380;49.910;6.792;2022-10-04T02:06:07;10.68;;;5.20;;
26806;SDS011;14380;49.910;6.792;2022-10-04T02:08:36;13.80;;;5.75;;
26806;SDS011;14380;49.910;6.792;2022-10-04T02:11:07;7.28;;;5.18;;
26806;SDS011;14380;49.910;6.792;2022-10-04T02:13:34;7.10;;;5.07;;
26806;SDS011;14380;49.910;6.792;2022-10-04T02:16:03;8.20;;;5.20;;
26806;SDS011;14380;49.910;6.792;2022-10-04T02:18:35;10.05;;;4.75;;
26806;SDS011;14380;49.910;6.792;2022-10-04T02:21:03;13.27;;;4.93;;
26806;SDS011;14380;49.910;6.792;2022-10-04T02:23:31;9.68;;;5.45;;
26806;SDS011;14380;49.910;6.792;2022-10-04T02:26:03;9.05;;;4.88;;
26806;SDS011;14380;49.910;6.792;2022-10-04T02:28:32;9.52;;;5.25;;
26806;SDS011;14380;49.910;6.792;2022-10-04T02:30:59;11.30;;;5.00;;
26806;SDS011;14380;49.910;6.792;2022-10-04T02:33:46;7.10;;;4.65;;
26806;SDS011;14380;49.910;6.792;2022-10-04T02:36:15;6.15;;;4.85;;
26806;SDS011;14380;49.910;6.792;2022-10-04T02:38:46;8.20;;;5.05;;
26806;SDS011;14380;49.910;6.792;2022-10-04T02:41:19;7.38;;;5.18;;
26806;SDS011;14380;49.910;6.792;2022-10-04T02:43:53;10.07;;;5.30;;
26806;SDS011;14380;49.910;6.792;2022-10-04T02:46:23;7.65;;;5.03;;
26806;SDS011;14380;49.910;6.792;2022-10-04T02:48:54;9.90;;;5.13;;
26806;SDS011;14380;49.910;6.792;2022-10-04T02:51:24;9.73;;;5.60;;
26806;SDS011;14380;49.910;6.792;2022-10-04T02:53:59;12.32;;;5.00;;
26806;SDS011;14380;49.910;6.792;2022-10-04T02:56:31;7.18;;;5.22;;
26806;SDS011;14380;49.910;6.792;2022-10-04T02:59:03;13.25;;;6.07;;
26806;SDS011;14380;49.910;6.792;2022-10-04T03:01:40;11.05;;;5.80;;
26806;SDS011;14380;49.910;6.792;2022-10-04T03:04:12;11.18;;;5.60;;
26806;SDS011;14380;49.910;6.792;2022-10-04T03:06:40;11.55;;;5.80;;
26806;SDS011;14380;49.910;6.792;2022-10-04T03:09:09;11.77;;;6.30;;
26806;SDS011;14380;49.910;6.792;2022-10-04T03:11:36;6.65;;;5.75;;
26806;SDS011;14380;49.910;6.792;2022-10-04T03:14:07;8.55;;;5.57;;
26806;SDS011;14380;49.910;6.792;2022-10-04T03:16:38;15.85;;;6.25;;
26806;SDS011;14380;49.910;6.792;2022-10-04T03:19:07;18.70;;;5.90;;
26806;SDS011;14380;49.910;6.792;2022-10-04T03:21:36;11.00;;;6.00;;
26806;SDS011;14380;49.910;6.792;2022-10-04T03:24:05;10.85;;;6.43;;
26806;SDS011;14380;49.910;6.792;2022-10-04T03:26:33;11.77;;;6.43;;
26806;SDS011;14380;49.910;6.792;2022-10-04T03:29:04;13.25;;;6.15;;
26806;SDS011;14380;49.910;6.792;2022-10-04T03:31:35;14.85;;;6.55;;
26806;SDS011;14380;49.910;6.792;2022-10-04T03:34:05;14.18;;;7.07;;
26806;SDS011;14380;49.910;6.792;2022-10-04T03:36:39;17.77;;;7.53;;
26806;SDS011;14380;49.910;6.792;2022-10-04T03:39:07;19.60;;;7.22;;
26806;SDS011;14380;49.910;6.792;2022-10-04T03:41:36;17.83;;;6.82;;
26806;SDS011;14380;49.910;6.792;2022-10-04T03:44:04;16.75;;;7.05;;
26806;SDS011;14380;49.910;6.792;2022-10-04T03:46:39;11.38;;;6.75;;
26806;SDS011;14380;49.910;6.792;2022-10-04T03:49:07;11.25;;;6.78;;
26806;SDS011;14380;49.910;6.792;2022-10-04T03:51:37;16.95;;;6.63;;
26806;SDS011;14380;49.910;6.792;2022-10-04T03:54:11;14.85;;;6.45;;
26806;SDS011;14380;49.910;6.792;2022-10-04T03:56:42;13.05;;;6.10;;
26806;SDS011;14380;49.910;6.792;2022-10-04T03:59:11;27.20;;;6.60;;
26806;SDS011;14380;49.910;6.792;2022-10-04T04:01:43;11.73;;;6.50;;
26806;SDS011;14380;49.910;6.792;2022-10-04T04:04:17;9.57;;;6.13;;
26806;SDS011;14380;49.910;6.792;2022-10-04T04:06:51;14.63;;;6.28;;
26806;SDS011;14380;49.910;6.792;2022-10-04T04:09:26;17.85;;;7.05;;
26806;SDS011;14380;49.910;6.792;2022-10-04T04:12:03;11.95;;;6.70;;
26806;SDS011;14380;49.910;6.792;2022-10-04T04:14:36;32.97;;;7.47;;
26806;SDS011;14380;49.910;6.792;2022-10-04T04:20:02;18.20;;;6.63;;
26806;SDS011;14380;49.910;6.792;2022-10-04T04:22:32;20.38;;;6.93;;
26806;SDS011;14380;49.910;6.792;2022-10-04T04:25:00;18.60;;;7.15;;
26806;SDS011;14380;49.910;6.792;2022-10-04T04:27:32;23.95;;;6.07;;
26806;SDS011;14380;49.910;6.792;2022-10-04T04:30:04;52.20;;;7.10;;
26806;SDS011;14380;49.910;6.792;2022-10-04T04:32:34;63.72;;;7.53;;
26806;SDS011;14380;49.910;6.792;2022-10-04T04:35:05;47.70;;;7.28;;
26806;SDS011;14380;49.910;6.792;2022-10-04T04:37:54;50.53;;;8.77;;
26806;SDS011;14380;49.910;6.792;2022-10-04T04:40:28;15.57;;;7.38;;
26806;SDS011;14380;49.910;6.792;2022-10-04T04:42:56;8.27;;;6.18;;
26806;SDS011;14380;49.910;6.792;2022-10-04T04:45:26;49.40;;;7.95;;
26806;SDS011;14380;49.910;6.792;2022-10-04T04:47:55;12.02;;;6.45;;
26806;SDS011;14380;49.910;6.792;2022-10-04T04:50:25;12.40;;;6.50;;
26806;SDS011;14380;49.910;6.792;2022-10-04T04:52:57;26.80;;;6.00;;
26806;SDS011;14380;49.910;6.792;2022-10-04T04:55:28;37.65;;;6.43;;
26806;SDS011;14380;49.910;6.792;2022-10-04T04:57:59;13.85;;;5.20;;
26806;SDS011;14380;49.910;6.792;2022-10-04T05:00:29;31.85;;;5.63;;
26806;SDS011;14380;49.910;6.792;2022-10-04T05:02:58;36.80;;;5.85;;
26806;SDS011;14380;49.910;6.792;2022-10-04T05:05:27;18.15;;;5.35;;
26806;SDS011;14380;49.910;6.792;2022-10-04T05:08:02;28.40;;;5.18;;
26806;SDS011;14380;49.910;6.792;2022-10-04T05:10:36;22.20;;;4.45;;
26806;SDS011;14380;49.910;6.792;2022-10-04T05:13:07;12.57;;;5.05;;
26806;SDS011;14380;49.910;6.792;2022-10-04T05:15:37;10.77;;;4.85;;
26806;SDS011;14380;49.910;6.792;2022-10-04T05:18:12;13.57;;;4.13;;
26806;SDS011;14380;49.910;6.792;2022-10-04T05:20:51;9.45;;;4.53;;
26806;SDS011;14380;49.910;6.792;2022-10-04T05:23:20;18.45;;;4.20;;
26806;SDS011;14380;49.910;6.792;2022-10-04T05:25:47;19.50;;;3.60;;
26806;SDS011;14380;49.910;6.792;2022-10-04T05:28:15;15.68;;;3.42;;
26806;SDS011;14380;49.910;6.792;2022-10-04T05:30:49;20.08;;;3.83;;
26806;SDS011;14380;49.910;6.792;2022-10-04T05:33:35;17.42;;;3.53;;
26806;SDS011;14380;49.910;6.792;2022-10-04T05:36:29;11.40;;;3.55;;
26806;SDS011;14380;49.910;6.792;2022-10-04T05:39:04;8.75;;;3.45;;
26806;SDS011;14380;49.910;6.792;2022-10-04T05:41:41;6.40;;;3.30;;
26806;SDS011;14380;49.910;6.792;2022-10-04T05:44:18;23.92;;;3.88;;
26806;SDS011;14380;49.910;6.792;2022-10-04T05:46:51;10.00;;;3.05;;
26806;SDS011;14380;49.910;6.792;2022-10-04T05:49:19;4.93;;;3.17;;
26806;SDS011;14380;49.910;6.792;2022-10-04T05:51:48;5.50;;;2.80;;
26806;SDS011;14380;49.910;6.792;2022-10-04T05:54:17;7.15;;;2.58;;
26806;SDS011;14380;49.910;6.792;2022-10-04T05:56:56;5.97;;;3.00;;
26806;SDS011;14380;49.910;6.792;2022-10-04T05:59:48;4.13;;;3.50;;
26806;SDS011;14380;49.910;6.792;2022-10-04T06:02:39;3.65;;;3.25;;
26806;SDS011;14380;49.910;6.792;2022-10-04T06:05:24;5.38;;;3.00;;
26806;SDS011;14380;49.910;6.792;2022-10-04T06:07:56;3.10;;;2.80;;
26806;SDS011;14380;49.910;6.792;2022-10-04T06:13:21;3.88;;;2.83;;
26806;SDS011;14380;49.910;6.792;2022-10-04T06:16:11;3.15;;;2.63;;
26806;SDS011;14380;49.910;6.792;2022-10-04T06:18:58;2.70;;;2.50;;
26806;SDS011;14380;49.910;6.792;2022-10-04T06:21:38;3.53;;;3.22;;
26806;SDS011;14380;49.910;6.792;2022-10-04T06:24:22;2.90;;;2.70;;
26806;SDS011;14380;49.910;6.792;2022-10-04T06:26:53;4.88;;;3.75;;
26806;SDS011;14380;49.910;6.792;2022-10-04T06:29:28;3.47;;;3.17;;
26806;SDS011;14380;49.910;6.792;2022-10-04T06:34:52;7.63;;;4.97;;
26806;SDS011;14380;49.910;6.792;2022-10-04T06:37:46;3.42;;;2.70;;
26806;SDS011;14380;49.910;6.792;2022-10-04T06:40:41;3.10;;;2.40;;
26806;SDS011;14380;49.910;6.792;2022-10-04T06:43:35;3.65;;;2.10;;
26806;SDS011;14380;49.910;6.792;2022-10-04T06:46:16;3.00;;;2.60;;
26806;SDS011;14380;49.910;6.792;2022-10-04T06:49:02;3.53;;;2.28;;
26806;SDS011;14380;49.910;6.792;2022-10-04T06:51:58;6.90;;;2.30;;
26806;SDS011;14380;49.910;6.792;2022-10-04T06:54:44;4.47;;;2.65;;
26806;SDS011;14380;49.910;6.792;2022-10-04T06:57:36;2.78;;;2.35;;
26806;SDS011;14380;49.910;6.792;2022-10-04T07:00:17;8.02;;;2.30;;
26806;SDS011;14380;49.910;6.792;2022-10-04T07:02:48;2.85;;;2.35;;
26806;SDS011;14380;49.910;6.792;2022-10-04T07:05:21;4.90;;;2.50;;
26806;SDS011;14380;49.910;6.792;2022-10-04T07:08:00;2.28;;;2.08;;
26806;SDS011;14380;49.910;6.792;2022-10-04T07:10:32;6.18;;;2.55;;
26806;SDS011;14380;49.910;6.792;2022-10-04T07:13:16;3.38;;;2.60;;
26806;SDS011;14380;49.910;6.792;2022-10-04T07:15:55;4.15;;;2.80;;
26806;SDS011;14380;49.910;6.792;2022-10-04T07:18:29;3.08;;;2.67;;
26806;SDS011;14380;49.910;6.792;2022-10-04T07:21:01;3.95;;;2.90;;
26806;SDS011;14380;49.910;6.792;2022-10-04T07:23:35;2.78;;;2.58;;
26806;SDS011;14380;49.910;6.792;2022-10-04T07:26:05;6.40;;;3.08;;
26806;SDS011;14380;49.910;6.792;2022-10-04T07:28:44;94.03;;;4.55;;
26806;SDS011;14380;49.910;6.792;2022-10-04T07:31:31;9.15;;;3.05;;
26806;SDS011;14380;49.910;6.792;2022-10-04T07:34:02;22.67;;;3.40;;
26806;SDS011;14380;49.910;6.792;2022-10-04T07:36:38;235.43;;;9.85;;
26806;SDS011;14380;49.910;6.792;2022-10-04T07:39:13;60.08;;;4.50;;
26806;SDS011;14380;49.910;6.792;2022-10-04T07:41:45;165.93;;;5.68;;
26806;SDS011;14380;49.910;6.792;2022-10-04T07:44:18;96.75;;;6.28;;
26806;SDS011;14380;49.910;6.792;2022-10-04T07:46:52;112.93;;;5.13;;
26806;SDS011;14380;49.910;6.792;2022-10-04T07:49:23;52.90;;;4.38;;
26806;SDS011;14380;49.910;6.792;2022-10-04T07:51:56;210.43;;;9.80;;
26806;SDS011;14380;49.910;6.792;2022-10-04T07:54:49;101.38;;;6.32;;
26806;SDS011;14380;49.910;6.792;2022-10-04T07:57:24;12.23;;;4.40;;
26806;SDS011;14380;49.910;6.792;2022-10-04T08:00:00;88.75;;;5.60;;
26806;SDS011;14380;49.910;6.792;2022-10-04T08:02:33;94.07;;;5.40;;
26806;SDS011;14380;49.910;6.792;2022-10-04T08:05:12;51.85;;;5.70;;
26806;SDS011;14380;49.910;6.792;2022-10-04T08:10:24;57.45;;;4.90;;
26806;SDS011;14380;49.910;6.792;2022-10-04T08:12:56;34.08;;;4.38;;
26806;SDS011;14380;49.910;6.792;2022-10-04T08:15:34;31.45;;;4.32;;
26806;SDS011;14380;49.910;6.792;2022-10-04T08:18:09;53.30;;;5.13;;
26806;SDS011;14380;49.910;6.792;2022-10-04T08:20:47;93.55;;;4.90;;
26806;SDS011;14380;49.910;6.792;2022-10-04T08:23:23;71.78;;;4.47;;
26806;SDS011;14380;49.910;6.792;2022-10-04T08:26:16;54.08;;;4.30;;
26806;SDS011;14380;49.910;6.792;2022-10-04T08:29:02;17.73;;;3.80;;
26806;SDS011;14380;49.910;6.792;2022-10-04T08:32:00;4.28;;;3.35;;
26806;SDS011;14380;49.910;6.792;2022-10-04T08:34:37;5.90;;;3.40;;
26806;SDS011;14380;49.910;6.792;2022-10-04T08:37:21;4.57;;;3.78;;
26806;SDS011;14380;49.910;6.792;2022-10-04T08:40:06;4.25;;;3.47;;
26806;SDS011;14380;49.910;6.792;2022-10-04T08:43:12;5.00;;;3.78;;
26806;SDS011;14380;49.910;6.792;2022-10-04T08:52:11;7.60;;;3.47;;
26806;SDS011;14380;49.910;6.792;2022-10-04T08:58:13;6.45;;;3.80;;
26806;SDS011;14380;49.910;6.792;2022-10-04T09:00:55;9.65;;;4.10;;
26806;SDS011;14380;49.910;6.792;2022-10-04T09:03:43;21.67;;;3.90;;
26806;SDS011;14380;49.910;6.792;2022-10-04T09:06:34;24.75;;;5.15;;
26806;SDS011;14380;49.910;6.792;2022-10-04T09:15:15;34.55;;;4.55;;
26806;SDS011;14380;49.910;6.792;2022-10-04T09:17:52;37.67;;;6.15;;
26806;SDS011;14380;49.910;6.792;2022-10-04T09:20:27;64.68;;;5.97;;
26806;SDS011;14380;49.910;6.792;2022-10-04T09:23:10;5.32;;;3.92;;
26806;SDS011;14380;49.910;6.792;2022-10-04T09:25:56;14.40;;;4.82;;
26806;SDS011;14380;49.910;6.792;2022-10-04T09:28:42;5.88;;;4.70;;
26806;SDS011;14380;49.910;6.792;2022-10-04T09:31:50;5.63;;;4.93;;
26806;SDS011;14380;49.910;6.792;2022-10-04T09:34:57;6.40;;;4.38;;
26806;SDS011;14380;49.910;6.792;2022-10-04T09:37:42;4.75;;;4.35;;
26806;SDS011;14380;49.910;6.792;2022-10-04T09:40:53;6.40;;;4.40;;
26806;SDS011;14380;49.910;6.792;2022-10-04T09:46:45;5.57;;;4.70;;
26806;SDS011;14380;49.910;6.792;2022-10-04T09:49:30;5.40;;;4.90;;
26806;SDS011;14380;49.910;6.792;2022-10-04T09:52:13;7.45;;;4.78;;
26806;SDS011;14380;49.910;6.792;2022-10-04T09:54:59;4.80;;;4.35;;
26806;SDS011;14380;49.910;6.792;2022-10-04T09:57:44;5.38;;;4.50;;
26806;SDS011;14380;49.910;6.792;2022-10-04T10:00:21;4.53;;;4.10;;
26806;SDS011;14380;49.910;6.792;2022-10-04T10:02:58;5.18;;;4.00;;
26806;SDS011;14380;49.910;6.792;2022-10-04T10:08:47;6.78;;;3.75;;
26806;SDS011;14380;49.910;6.792;2022-10-04T10:11:29;4.47;;;3.92;;
26806;SDS011;14380;49.910;6.792;2022-10-04T10:14:36;8.05;;;4.28;;
26806;SDS011;14380;49.910;6.792;2022-10-04T10:17:29;6.40;;;4.38;;
26806;SDS011;14380;49.910;6.792;2022-10-04T10:20:13;5.43;;;3.88;;
26806;SDS011;14380;49.910;6.792;2022-10-04T10:23:00;5.38;;;4.55;;
26806;SDS011;14380;49.910;6.792;2022-10-04T10:25:53;5.03;;;4.13;;
26806;SDS011;14380;49.910;6.792;2022-10-04T10:31:44;4.18;;;3.85;;
26806;SDS011;14380;49.910;6.792;2022-10-04T10:34:27;5.35;;;4.55;;
26806;SDS011;14380;49.910;6.792;2022-10-04T10:37:20;7.00;;;4.13;;
26806;SDS011;14380;49.910;6.792;2022-10-04T10:39:59;4.00;;;3.58;;
26806;SDS011;14380;49.910;6.792;2022-10-04T10:43:06;8.30;;;4.13;;
26806;SDS011;14380;49.910;6.792;2022-10-04T10:48:56;4.03;;;3.55;;
26806;SDS011;14380;49.910;6.792;2022-10-04T10:51:45;6.68;;;3.72;;
26806;SDS011;14380;49.910;6.792;2022-10-04T10:54:44;4.75;;;2.95;;
26806;SDS011;14380;49.910;6.792;2022-10-04T10:57:30;7.88;;;3.25;;
26806;SDS011;14380;49.910;6.792;2022-10-04T11:00:20;5.53;;;3.00;;
26806;SDS011;14380;49.910;6.792;2022-10-04T11:03:02;7.22;;;3.10;;
26806;SDS011;14380;49.910;6.792;2022-10-04T11:05:53;3.45;;;3.15;;
26806;SDS011;14380;49.910;6.792;2022-10-04T11:14:57;4.47;;;3.85;;
26806;SDS011;14380;49.910;6.792;2022-10-04T11:17:47;5.05;;;4.55;;
26806;SDS011;14380;49.910;6.792;2022-10-04T11:20:43;5.72;;;4.40;;
26806;SDS011;14380;49.910;6.792;2022-10-04T11:26:47;6.07;;;4.80;;
26806;SDS011;14380;49.910;6.792;2022-10-04T11:29:26;10.35;;;4.85;;
26806;SDS011;14380;49.910;6.792;2022-10-04T11:38:22;6.45;;;4.38;;
26806;SDS011;14380;49.910;6.792;2022-10-04T11:41:07;7.45;;;4.68;;
26806;SDS011;14380;49.910;6.792;2022-10-04T11:46:41;4.60;;;4.18;;
26806;SDS011;14380;49.910;6.792;2022-10-04T11:55:54;5.20;;;4.53;;
26806;SDS011;14380;49.910;6.792;2022-10-04T11:58:34;5.32;;;4.13;;
26806;SDS011;14380;49.910;6.792;2022-10-04T12:01:23;5.22;;;4.47;;
26806;SDS011;14380;49.910;6.792;2022-10-04T12:07:24;7.32;;;3.88;;
26806;SDS011;14380;49.910;6.792;2022-10-04T12:10:03;9.50;;;4.03;;
26806;SDS011;14380;49.910;6.792;2022-10-04T12:13:05;7.30;;;3.85;;
26806;SDS011;14380;49.910;6.792;2022-10-04T12:18:56;9.30;;;3.42;;
26806;SDS011;14380;49.910;6.792;2022-10-04T12:21:46;6.72;;;3.60;;
26806;SDS011;14380;49.910;6.792;2022-10-04T12:24:26;6.05;;;3.03;;
26806;SDS011;14380;49.910;6.792;2022-10-04T12:30:20;6.40;;;2.85;;
26806;SDS011;14380;49.910;6.792;2022-10-04T12:32:54;9.38;;;3.17;;
26806;SDS011;14380;49.910;6.792;2022-10-04T12:40:53;5.82;;;2.90;;
26806;SDS011;14380;49.910;6.792;2022-10-04T12:43:28;7.75;;;2.83;;
26806;SDS011;14380;49.910;6.792;2022-10-04T12:46:05;7.88;;;3.70;;
26806;SDS011;14380;49.910;6.792;2022-10-04T12:48:46;3.38;;;2.80;;
26806;SDS011;14380;49.910;6.792;2022-10-04T12:51:30;8.52;;;2.35;;
26806;SDS011;14380;49.910;6.792;2022-10-04T12:54:09;6.68;;;2.50;;
26806;SDS011;14380;49.910;6.792;2022-10-04T12:56:48;11.95;;;2.85;;
26806;SDS011;14380;49.910;6.792;2022-10-04T12:59:25;6.35;;;2.88;;
26806;SDS011;14380;49.910;6.792;2022-10-04T13:02:10;5.63;;;2.58;;
26806;SDS011;14380;49.910;6.792;2022-10-04T13:04:47;9.25;;;2.40;;
26806;SDS011;14380;49.910;6.792;2022-10-04T13:10:28;12.00;;;2.65;;
26806;SDS011;14380;49.910;6.792;2022-10-04T13:15:56;5.32;;;2.30;;
26806;SDS011;14380;49.910;6.792;2022-10-04T13:18:35;9.05;;;2.88;;
26806;SDS011;14380;49.910;6.792;2022-10-04T13:21:10;5.85;;;2.53;;
26806;SDS011;14380;49.910;6.792;2022-10-04T13:23:57;7.97;;;2.50;;
26806;SDS011;14380;49.910;6.792;2022-10-04T13:26:39;5.03;;;2.38;;
26806;SDS011;14380;49.910;6.792;2022-10-04T13:29:16;5.47;;;2.47;;
26806;SDS011;14380;49.910;6.792;2022-10-04T13:31:49;6.30;;;2.63;;
26806;SDS011;14380;49.910;6.792;2022-10-04T13:34:23;8.75;;;2.90;;
26806;SDS011;14380;49.910;6.792;2022-10-04T13:36:59;8.80;;;2.70;;
26806;SDS011;14380;49.910;6.792;2022-10-04T13:40:04;5.28;;;2.50;;
26806;SDS011;14380;49.910;6.792;2022-10-04T13:42:50;5.10;;;2.55;;
26806;SDS011;14380;49.910;6.792;2022-10-04T13:45:35;5.70;;;3.10;;
26806;SDS011;14380;49.910;6.792;2022-10-04T13:51:00;8.15;;;3.25;;
26806;SDS011;14380;49.910;6.792;2022-10-04T13:53:41;6.70;;;3.13;;
26806;SDS011;14380;49.910;6.792;2022-10-04T13:56:45;6.28;;;3.03;;
26806;SDS011;14380;49.910;6.792;2022-10-04T13:59:26;9.45;;;3.10;;
26806;SDS011;14380;49.910;6.792;2022-10-04T14:05:19;8.05;;;2.40;;
26806;SDS011;14380;49.910;6.792;2022-10-04T14:08:31;8.40;;;2.97;;
26806;SDS011;14380;49.910;6.792;2022-10-04T14:11:30;9.73;;;3.40;;
26806;SDS011;14380;49.910;6.792;2022-10-04T14:17:57;4.25;;;2.60;;
26806;SDS011;14380;49.910;6.792;2022-10-04T14:20:54;8.45;;;2.22;;
26806;SDS011;14380;49.910;6.792;2022-10-04T14:23:54;8.15;;;2.67;;
26806;SDS011;14380;49.910;6.792;2022-10-04T14:26:54;7.10;;;1.92;;
26806;SDS011;14380;49.910;6.792;2022-10-04T14:32:37;6.20;;;1.95;;
26806;SDS011;14380;49.910;6.792;2022-10-04T14:35:26;6.60;;;2.80;;
26806;SDS011;14380;49.910;6.792;2022-10-04T14:38:21;6.30;;;2.53;;
26806;SDS011;14380;49.910;6.792;2022-10-04T14:41:15;5.00;;;2.22;;
26806;SDS011;14380;49.910;6.792;2022-10-04T14:47:19;3.92;;;2.33;;
26806;SDS011;14380;49.910;6.792;2022-10-04T14:50:01;6.63;;;2.40;;
26806;SDS011;14380;49.910;6.792;2022-10-04T14:52:47;6.05;;;2.38;;
26806;SDS011;14380;49.910;6.792;2022-10-04T14:55:35;8.27;;;2.35;;
26806;SDS011;14380;49.910;6.792;2022-10-04T15:01:17;6.70;;;2.38;;
26806;SDS011;14380;49.910;6.792;2022-10-04T15:03:51;4.00;;;2.35;;
26806;SDS011;14380;49.910;6.792;2022-10-04T15:06:38;7.45;;;2.60;;
26806;SDS011;14380;49.910;6.792;2022-10-04T15:12:27;7.20;;;2.35;;
26806;SDS011;14380;49.910;6.792;2022-10-04T15:18:12;7.55;;;2.75;;
26806;SDS011;14380;49.910;6.792;2022-10-04T15:20:53;8.20;;;2.67;;
26806;SDS011;14380;49.910;6.792;2022-10-04T15:23:32;6.88;;;2.80;;
26806;SDS011;14380;49.910;6.792;2022-10-04T15:26:05;5.97;;;2.40;;
26806;SDS011;14380;49.910;6.792;2022-10-04T15:28:59;7.78;;;3.20;;
26806;SDS011;14380;49.910;6.792;2022-10-04T15:31:32;10.50;;;2.78;;
26806;SDS011;14380;49.910;6.792;2022-10-04T15:34:05;8.60;;;2.70;;
26806;SDS011;14380;49.910;6.792;2022-10-04T15:39:47;11.02;;;2.50;;
26806;SDS011;14380;49.910;6.792;2022-10-04T15:42:33;5.50;;;2.78;;
26806;SDS011;14380;49.910;6.792;2022-10-04T15:45:20;6.55;;;2.85;;
26806;SDS011;14380;49.910;6.792;2022-10-04T15:47:59;6.82;;;3.17;;
26806;SDS011;14380;49.910;6.792;2022-10-04T15:50:36;14.15;;;3.80;;
26806;SDS011;14380;49.910;6.792;2022-10-04T15:53:37;10.15;;;3.40;;
26806;SDS011;14380;49.910;6.792;2022-10-04T15:56:10;11.30;;;2.95;;
26806;SDS011;14380;49.910;6.792;2022-10-04T15:58:51;9.27;;;3.38;;
26806;SDS011;14380;49.910;6.792;2022-10-04T16:05:00;8.73;;;3.30;;
26806;SDS011;14380;49.910;6.792;2022-10-04T16:07:50;9.63;;;2.90;;
26806;SDS011;14380;49.910;6.792;2022-10-04T16:10:29;6.00;;;3.80;;
26806;SDS011;14380;49.910;6.792;2022-10-04T16:13:35;10.55;;;7.28;;
26806;SDS011;14380;49.910;6.792;2022-10-04T16:16:29;22.67;;;15.20;;
26806;SDS011;14380;49.910;6.792;2022-10-04T16:19:24;17.92;;;11.85;;
26806;SDS011;14380;49.910;6.792;2022-10-04T16:22:09;16.00;;;8.98;;
26806;SDS011;14380;49.910;6.792;2022-10-04T16:24:44;7.43;;;3.97;;
26806;SDS011;14380;49.910;6.792;2022-10-04T16:27:36;8.30;;;3.95;;
26806;SDS011;14380;49.910;6.792;2022-10-04T16:30:17;8.02;;;4.13;;
26806;SDS011;14380;49.910;6.792;2022-10-04T16:33:01;11.27;;;5.40;;
26806;SDS011;14380;49.910;6.792;2022-10-04T16:35:37;6.55;;;3.70;;
26806;SDS011;14380;49.910;6.792;2022-10-04T16:38:18;6.97;;;3.65;;
26806;SDS011;14380;49.910;6.792;2022-10-04T16:40:57;7.97;;;3.53;;
26806;SDS011;14380;49.910;6.792;2022-10-04T16:43:33;5.72;;;3.38;;
26806;SDS011;14380;49.910;6.792;2022-10-04T16:46:05;9.18;;;3.88;;
26806;SDS011;14380;49.910;6.792;2022-10-04T16:48:45;8.25;;;3.85;;
26806;SDS011;14380;49.910;6.792;2022-10-04T16:51:20;8.70;;;3.88;;
26806;SDS011;14380;49.910;6.792;2022-10-04T16:54:08;7.75;;;3.67;;
26806;SDS011;14380;49.910;6.792;2022-10-04T16:57:14;6.78;;;3.78;;
26806;SDS011;14380;49.910;6.792;2022-10-04T16:59:48;14.70;;;4.75;;
26806;SDS011;14380;49.910;6.792;2022-10-04T17:02:21;8.25;;;4.07;;
26806;SDS011;14380;49.910;6.792;2022-10-04T17:05:02;8.85;;;4.20;;
26806;SDS011;14380;49.910;6.792;2022-10-04T17:07:55;7.38;;;4.22;;
26806;SDS011;14380;49.910;6.792;2022-10-04T17:10:39;8.77;;;4.10;;
26806;SDS011;14380;49.910;6.792;2022-10-04T17:13:28;8.65;;;4.53;;
26806;SDS011;14380;49.910;6.792;2022-10-04T17:16:00;9.93;;;4.25;;
26806;SDS011;14380;49.910;6.792;2022-10-04T17:18:39;9.33;;;4.43;;
26806;SDS011;14380;49.910;6.792;2022-10-04T17:21:19;4.78;;;4.15;;
26806;SDS011;14380;49.910;6.792;2022-10-04T17:24:14;9.70;;;5.03;;
26806;SDS011;14380;49.910;6.792;2022-10-04T17:26:53;5.85;;;4.78;;
26806;SDS011;14380;49.910;6.792;2022-10-04T17:29:30;8.00;;;4.57;;
26806;SDS011;14380;49.910;6.792;2022-10-04T17:32:06;13.52;;;4.80;;
26806;SDS011;14380;49.910;6.792;2022-10-04T17:34:43;8.85;;;4.70;;
26806;SDS011;14380;49.910;6.792;2022-10-04T17:37:20;7.97;;;4.65;;
26806;SDS011;14380;49.910;6.792;2022-10-04T17:39:51;13.35;;;5.22;;
26806;SDS011;14380;49.910;6.792;2022-10-04T17:42:34;7.53;;;4.88;;
26806;SDS011;14380;49.910;6.792;2022-10-04T17:45:19;8.10;;;5.20;;
26806;SDS011;14380;49.910;6.792;2022-10-04T17:47:58;8.55;;;5.10;;
26806;SDS011;14380;49.910;6.792;2022-10-04T17:50:49;13.77;;;5.57;;
26806;SDS011;14380;49.910;6.792;2022-10-04T17:53:43;9.43;;;5.05;;
26806;SDS011;14380;49.910;6.792;2022-10-04T17:56:31;6.00;;;4.40;;
26806;SDS011;14380;49.910;6.792;2022-10-04T17:59:06;11.50;;;5.47;;
26806;SDS011;14380;49.910;6.792;2022-10-04T18:01:39;11.63;;;4.47;;